Time;durP1;ratioP1;P1;durP2;ratioP2;P2;SDS_P1;SDS_P2;PMS_P1;PMS_P2;Temp;Humidity;BMP_temperature;BMP_pressure;BME280_temperature;BME280_humidity;BME280_pressure;Samples;Min_cycle;Max_cycle;Signal;HPM_P1;HPM_P2
2022/08/17 00:00:38;;;;;;;5.80;5.30;;;;;;;21.73;52.98;96653.22;4990325;28;20291;-75
2022/08/17 00:03:15;;;;;;;5.82;5.43;;;;;;;21.70;52.97;96656.53;5043033;27;20261;-74
2022/08/17 00:05:57;;;;;;;5.72;5.22;;;;;;;21.64;53.45;96652.53;5027268;27;20278;-74
2022/08/17 00:08:25;;;;;;;5.60;5.10;;;;;;;21.74;53.12;96640.72;5010223;27;20200;-75
2022/08/17 00:10:52;;;;;;;5.80;5.35;;;;;;;21.75;53.19;96651.00;5010399;27;20200;-75
2022/08/17 00:13:22;;;;;;;6.45;5.85;;;;;;;21.65;53.63;96638.94;5010283;27;20709;-75
2022/08/17 00:15:48;;;;;;;5.75;5.25;;;;;;;21.69;53.57;96639.84;5044619;27;20170;-74
2022/08/17 00:18:13;;;;;;;6.35;5.60;;;;;;;21.69;53.76;96644.38;5024391;27;20636;-75
2022/08/17 00:20:39;;;;;;;6.07;5.18;;;;;;;21.68;53.63;96640.94;5010480;27;20291;-74
2022/08/17 00:23:11;;;;;;;5.88;5.32;;;;;;;21.58;53.63;96640.59;5010021;27;20279;-75
2022/08/17 00:25:37;;;;;;;5.93;5.32;;;;;;;21.66;53.52;96648.47;5005751;28;20573;-75
2022/08/17 00:28:03;;;;;;;6.03;5.53;;;;;;;21.59;53.94;96640.28;4989187;27;20315;-75
2022/08/17 00:30:29;;;;;;;5.82;5.32;;;;;;;21.55;53.98;96628.78;4990127;28;20191;-75
2022/08/17 00:32:57;;;;;;;5.88;5.38;;;;;;;21.55;53.66;96634.06;4990505;28;20188;-75
2022/08/17 00:35:26;;;;;;;7.22;6.53;;;;;;;21.46;53.65;96631.53;5021548;27;20282;-75
2022/08/17 00:37:52;;;;;;;6.30;5.72;;;;;;;21.52;53.92;96632.09;5026149;27;20158;-74
2022/08/17 00:40:18;;;;;;;6.43;5.82;;;;;;;21.54;54.13;96632.56;5027045;27;20604;-75
2022/08/17 00:42:45;;;;;;;5.90;5.40;;;;;;;21.48;54.22;96621.38;5027158;27;20206;-75
2022/08/17 00:45:13;;;;;;;6.15;5.55;;;;;;;21.45;54.41;96629.94;5023606;28;20213;-75
2022/08/17 00:47:42;;;;;;;6.25;5.75;;;;;;;21.39;54.33;96619.91;5024021;27;20288;-74
2022/08/17 00:50:11;;;;;;;5.78;5.28;;;;;;;21.37;54.64;96622.88;5007178;28;20197;-74
2022/08/17 00:52:42;;;;;;;6.70;5.70;;;;;;;21.36;54.34;96621.31;4973598;28;20361;-74
2022/08/17 00:55:10;;;;;;;6.03;5.43;;;;;;;21.47;54.15;96625.13;5006923;28;20182;-74
2022/08/17 00:57:43;;;;;;;6.30;5.45;;;;;;;21.40;53.82;96622.22;4989959;28;20170;-74
2022/08/17 01:00:40;;;;;;;5.70;5.20;;;;;;;21.54;53.76;96627.25;5023120;28;20224;-75
2022/08/17 01:03:09;;;;;;;5.65;5.25;;;;;;;21.49;53.94;96624.81;5023901;28;20209;-75
2022/08/17 01:05:37;;;;;;;5.78;5.28;;;;;;;21.56;53.54;96626.91;5006662;28;20719;-75
2022/08/17 01:08:05;;;;;;;5.43;4.90;;;;;;;21.50;53.49;96616.50;4972725;28;20635;-75
2022/08/17 01:10:43;;;;;;;5.95;5.43;;;;;;;21.42;53.83;96619.22;5009053;28;20630;-75
2022/08/17 01:13:10;;;;;;;5.20;4.80;;;;;;;21.47;54.11;96614.53;5027475;28;20197;-75
2022/08/17 01:15:36;;;;;;;7.90;5.75;;;;;;;21.51;53.93;96618.06;5007297;28;20192;-75
2022/08/17 01:18:04;;;;;;;5.97;5.47;;;;;;;21.45;54.09;96608.00;5006186;28;20200;-75
2022/08/17 01:20:31;;;;;;;5.90;5.40;;;;;;;21.52;54.49;96618.84;4989900;28;20813;-75
2022/08/17 01:22:57;;;;;;;5.63;5.13;;;;;;;21.55;54.12;96620.06;5006716;28;20221;-75
2022/08/17 01:25:23;;;;;;;5.97;5.38;;;;;;;21.54;54.55;96623.81;5024773;28;20185;-75
2022/08/17 01:27:49;;;;;;;5.68;5.18;;;;;;;21.57;54.37;96620.50;5009173;27;20201;-75
2022/08/17 01:30:17;;;;;;;6.40;5.80;;;;;;;21.50;54.70;96621.06;4994056;28;20247;-75
2022/08/17 01:32:42;;;;;;;6.53;5.93;;;;;;;21.60;54.56;96614.56;4994052;28;20284;-75
2022/08/17 01:35:08;;;;;;;6.22;5.63;;;;;;;21.60;54.77;96619.84;4993492;28;20297;-75
2022/08/17 01:37:37;;;;;;;6.22;5.63;;;;;;;21.54;54.25;96616.66;4976207;28;20651;-75
2022/08/17 01:40:15;;;;;;;5.40;5.00;;;;;;;21.61;54.26;96626.69;5010296;28;20635;-75
2022/08/17 01:42:45;;;;;;;6.47;5.22;;;;;;;21.70;54.04;96633.44;5028844;28;20327;-75
2022/08/17 01:45:16;;;;;;;5.80;5.30;;;;;;;21.66;54.09;96624.63;5009669;28;20700;-76
2022/08/17 01:47:42;;;;;;;5.50;5.00;;;;;;;21.70;53.99;96620.19;4992640;27;20700;-75
2022/08/17 01:50:16;;;;;;;5.32;4.82;;;;;;;21.61;53.78;96624.81;5009896;28;20323;-75
2022/08/17 01:52:43;;;;;;;5.85;5.35;;;;;;;21.73;53.69;96633.88;4993412;28;20704;-75
2022/08/17 01:55:10;;;;;;;5.30;4.82;;;;;;;21.72;53.61;96633.13;4993473;28;20217;-75
2022/08/17 01:57:35;;;;;;;5.40;4.68;;;;;;;21.76;53.22;96625.28;4992371;28;20654;-75
2022/08/17 02:00:03;;;;;;;5.20;4.70;;;;;;;21.71;53.24;96626.25;4992163;28;20205;-75
2022/08/17 02:02:29;;;;;;;5.88;5.40;;;;;;;21.68;53.61;96625.06;5010851;28;20338;-75
2022/08/17 02:04:55;;;;;;;5.47;4.97;;;;;;;21.64;53.49;96623.38;5009859;28;20291;-75
2022/08/17 02:07:20;;;;;;;5.90;5.40;;;;;;;21.63;53.64;96627.91;5010206;28;20170;-75
2022/08/17 02:09:46;;;;;;;6.15;5.57;;;;;;;21.55;53.57;96626.13;5025635;27;20281;-75
2022/08/17 02:12:11;;;;;;;6.03;5.53;;;;;;;21.51;53.96;96623.38;5030447;27;20314;-75
2022/08/17 02:14:37;;;;;;;5.68;5.20;;;;;;;21.50;53.94;96621.81;4992284;28;20676;-75
2022/08/17 02:17:02;;;;;;;5.60;5.10;;;;;;;21.49;54.00;96624.81;5009764;28;20216;-75
2022/08/17 02:19:33;;;;;;;5.90;5.30;;;;;;;21.35;54.53;96627.72;5024061;27;20250;-75
2022/08/17 02:21:58;;;;;;;5.13;4.72;;;;;;;21.40;54.10;96611.59;5048622;27;20738;-75
2022/08/17 02:24:27;;;;;;;5.55;5.15;;;;;;;21.32;54.46;96615.16;5029828;27;20289;-75
2022/08/17 02:26:53;;;;;;;5.90;5.30;;;;;;;21.36;54.30;96609.97;5029799;27;20170;-75
2022/08/17 02:29:18;;;;;;;6.10;5.60;;;;;;;21.32;54.46;96607.97;5027801;27;20208;-75
2022/08/17 02:31:44;;;;;;;5.97;5.40;;;;;;;21.35;54.65;96609.19;5022291;28;20278;-75
2022/08/17 02:34:10;;;;;;;5.85;5.35;;;;;;;21.34;54.40;96615.59;4992656;28;20301;-75
2022/08/17 02:36:36;;;;;;;6.03;5.53;;;;;;;21.36;54.64;96613.38;4992085;28;20654;-75
2022/08/17 02:39:08;;;;;;;5.57;5.18;;;;;;;21.24;55.09;96619.41;5035514;27;20131;-75
2022/08/17 02:41:35;;;;;;;5.90;5.30;;;;;;;21.35;54.88;96611.81;5029556;27;20183;-75
2022/08/17 02:44:01;;;;;;;6.07;5.55;;;;;;;21.31;54.89;96606.41;5009873;27;20718;-75
2022/08/17 02:46:27;;;;;;;6.13;5.53;;;;;;;21.30;54.74;96606.75;5008316;27;20262;-75
2022/08/17 02:48:53;;;;;;;6.18;5.68;;;;;;;21.32;55.01;96607.19;5001808;28;20278;-75
2022/08/17 02:51:18;;;;;;;6.05;5.55;;;;;;;21.32;54.90;96604.56;5027598;28;20201;-75
2022/08/17 02:53:44;;;;;;;6.10;5.60;;;;;;;21.30;55.12;96599.59;4992254;28;20275;-75
2022/08/17 02:56:10;;;;;;;5.85;5.30;;;;;;;21.35;54.88;96613.72;5008594;28;20225;-75
2022/08/17 02:58:35;;;;;;;6.00;5.50;;;;;;;21.41;54.90;96617.69;5008945;28;20737;-75
2022/08/17 03:01:02;;;;;;;6.53;5.65;;;;;;;21.54;54.59;96632.56;5025633;28;20615;-75
2022/08/17 03:03:27;;;;;;;5.90;5.38;;;;;;;21.55;54.31;96649.97;5025605;28;20541;-75
2022/08/17 03:05:52;;;;;;;6.97;6.35;;;;;;;21.52;54.19;96677.13;5008841;28;20142;-75
2022/08/17 03:08:19;;;;;;;6.18;5.57;;;;;;;21.45;54.07;96672.31;5024918;27;20172;-75
2022/08/17 03:10:44;;;;;;;6.18;5.57;;;;;;;21.56;53.78;96677.22;5028903;27;20247;-75
2022/08/17 03:13:13;;;;;;;6.38;5.85;;;;;;;21.53;53.82;96680.56;5028957;27;20715;-75
2022/08/17 03:15:39;;;;;;;6.32;5.72;;;;;;;21.59;53.54;96679.22;5028799;27;20347;-75
2022/08/17 03:18:05;;;;;;;6.00;5.50;;;;;;;21.61;53.55;96674.38;5026522;27;20296;-75
2022/08/17 03:20:31;;;;;;;6.18;5.68;;;;;;;21.55;53.66;96671.16;5028626;27;20221;-75
2022/08/17 03:22:57;;;;;;;6.53;5.85;;;;;;;21.53;54.25;96669.97;5028775;27;20166;-75
2022/08/17 03:25:26;;;;;;;5.88;5.45;;;;;;;21.53;54.10;96672.59;5025179;27;20196;-75
2022/08/17 03:27:52;;;;;;;6.20;5.60;;;;;;;21.58;54.34;96669.75;4992464;27;20631;-75
2022/08/17 03:30:18;;;;;;;6.13;5.63;;;;;;;21.64;54.11;96682.47;5047108;27;20205;-75
2022/08/17 03:32:49;;;;;;;5.35;4.85;;;;;;;21.60;54.24;96691.38;5028491;27;20233;-75
2022/08/17 03:35:23;;;;;;;5.78;5.28;;;;;;;21.56;54.34;96683.31;5028162;27;20262;-75
2022/08/17 03:37:48;;;;;;;6.07;5.43;;;;;;;21.70;54.01;96677.72;5023318;27;20327;-75
2022/08/17 03:40:14;;;;;;;6.88;6.28;;;;;;;21.69;54.15;96676.94;5028292;27;20258;-75
2022/08/17 03:42:40;;;;;;;6.00;5.40;;;;;;;21.72;54.04;96680.03;5011415;27;20747;-75
2022/08/17 03:45:09;;;;;;;5.55;5.15;;;;;;;21.74;54.07;96675.19;5024689;28;20213;-75
2022/08/17 03:58:45;;;;;;;5.65;5.15;;;;;;;21.86;54.07;96673.31;5022372;27;20205;-75
2022/08/17 04:01:12;;;;;;;6.28;5.07;;;;;;;21.88;53.98;96665.03;5011282;27;20199;-75
2022/08/17 04:03:37;;;;;;;5.32;4.90;;;;;;;21.91;53.83;96666.25;5027705;27;20782;-75
2022/08/17 04:06:04;;;;;;;5.82;5.28;;;;;;;21.91;53.94;96668.91;5025866;27;20359;-75
2022/08/17 04:08:29;;;;;;;6.38;5.35;;;;;;;21.84;54.04;96669.44;5032342;27;20189;-75
2022/08/17 04:10:56;;;;;;;5.65;5.15;;;;;;;21.85;54.09;96673.66;4990896;28;20714;-75
2022/08/17 04:13:21;;;;;;;5.70;5.20;;;;;;;21.85;54.03;96674.44;4991104;28;20229;-75
2022/08/17 04:15:48;;;;;;;5.90;5.40;;;;;;;21.87;54.15;96669.56;5007208;28;20634;-75
2022/08/17 04:18:19;;;;;;;5.55;5.15;;;;;;;21.83;54.01;96668.69;5014101;27;20196;-75
2022/08/17 04:20:44;;;;;;;5.65;5.25;;;;;;;21.91;54.08;96666.25;5009400;27;20188;-75
2022/08/17 04:23:15;;;;;;;5.60;5.07;;;;;;;21.78;54.37;96666.25;5046320;27;20638;-75
2022/08/17 04:25:49;;;;;;;5.88;5.20;;;;;;;21.73;54.65;96661.16;5027743;27;20274;-75
2022/08/17 04:28:16;;;;;;;5.57;5.07;;;;;;;21.84;54.77;96651.66;5005101;28;20253;-75
2022/08/17 04:30:43;;;;;;;5.75;5.22;;;;;;;21.87;54.64;96653.66;5026034;27;20181;-75
2022/08/17 04:33:12;;;;;;;6.00;5.50;;;;;;;21.85;54.94;96658.53;5027516;27;20300;-75
2022/08/17 04:35:59;;;;;;;5.40;4.90;;;;;;;21.73;55.12;96661.16;5027166;27;20274;-75
2022/08/17 04:38:30;;;;;;;5.53;5.03;;;;;;;21.90;54.89;96662.84;5030937;27;20298;-75
2022/08/17 04:43:42;;;;;;;6.05;5.47;;;;;;;21.87;55.65;96658.97;5009873;28;20193;-75
2022/08/17 04:46:14;;;;;;;5.97;5.47;;;;;;;21.83;56.45;96666.03;5006801;28;20680;-75
2022/08/17 04:48:43;;;;;;;6.07;5.43;;;;;;;21.87;56.62;96666.16;5008112;27;20166;-75
2022/08/17 04:51:16;;;;;;;6.85;6.05;;;;;;;21.83;57.32;96658.09;5027068;27;20342;-75
2022/08/17 04:53:44;;;;;;;5.85;5.35;;;;;;;21.87;57.77;96648.34;5016149;28;20217;-75
2022/08/17 04:56:11;;;;;;;6.28;5.68;;;;;;;21.93;57.50;96659.50;4989911;28;20210;-75
2022/08/17 04:58:36;;;;;;;6.53;6.03;;;;;;;21.97;57.24;96664.91;5016090;28;20165;-75
2022/08/17 05:01:02;;;;;;;6.10;5.60;;;;;;;21.93;56.80;96670.09;5025261;28;20188;-75
2022/08/17 05:03:28;;;;;;;5.78;5.28;;;;;;;22.04;55.92;96659.88;5026427;28;20795;-75
2022/08/17 05:05:54;;;;;;;6.03;5.53;;;;;;;22.22;54.92;96665.69;5044425;28;20269;-75
2022/08/17 05:08:20;;;;;;;7.00;5.97;;;;;;;22.36;55.09;96666.19;5012701;28;20293;-75
2022/08/17 05:10:47;;;;;;;7.07;6.38;;;;;;;22.41;55.73;96667.81;5005719;28;20251;-75
2022/08/17 05:13:16;;;;;;;6.43;5.90;;;;;;;22.38;55.79;96679.09;5005887;28;20258;-76
2022/08/17 05:15:43;;;;;;;7.78;7.07;;;;;;;22.36;55.79;96676.78;4988483;28;20128;-75
2022/08/17 05:18:08;;;;;;;6.35;5.78;;;;;;;22.37;55.71;96673.00;4978056;28;20386;-75
2022/08/17 05:20:35;;;;;;;6.80;6.20;;;;;;;22.24;56.16;96661.63;5005733;28;20701;-75
2022/08/17 05:23:05;;;;;;;7.30;6.50;;;;;;;22.16;56.80;96659.84;5005787;28;20595;-75
2022/08/17 05:25:34;;;;;;;6.60;6.00;;;;;;;22.16;57.02;96645.84;4989083;28;20365;-75
2022/08/17 05:28:00;;;;;;;6.65;5.97;;;;;;;22.29;56.24;96630.69;5012091;28;20213;-75
2022/08/17 05:30:26;;;;;;;6.05;5.55;;;;;;;22.36;57.05;96625.59;5021256;28;20243;-75
2022/08/17 05:32:58;;;;;;;6.55;5.95;;;;;;;22.26;57.50;96613.56;4988749;28;20193;-75
2022/08/17 05:35:26;;;;;;;6.93;6.32;;;;;;;22.39;57.70;96606.38;4988005;28;20159;-74
2022/08/17 05:37:52;;;;;;;7.55;6.47;;;;;;;22.49;57.60;96597.19;4975409;28;20178;-75
2022/08/17 05:40:19;;;;;;;7.18;5.93;;;;;;;22.59;57.67;96613.38;5005460;28;20680;-75
2022/08/17 05:42:45;;;;;;;6.63;6.03;;;;;;;22.67;57.07;96611.72;5005036;28;20591;-75
2022/08/17 05:45:11;;;;;;;7.18;6.35;;;;;;;22.69;57.15;96608.72;5005806;28;20238;-75
2022/08/17 05:47:37;;;;;;;6.03;5.40;;;;;;;22.73;57.41;96614.91;4987502;28;20738;-75
2022/08/17 05:50:03;;;;;;;6.45;5.85;;;;;;;22.84;56.94;96610.66;5006270;28;20395;-75
2022/08/17 05:52:37;;;;;;;6.65;6.15;;;;;;;22.69;56.85;96624.63;5006243;28;20249;-75
2022/08/17 05:55:30;;;;;;;6.38;5.88;;;;;;;22.69;57.44;96629.94;5017329;28;20185;-75
2022/08/17 05:58:21;;;;;;;6.85;6.00;;;;;;;22.78;57.18;96652.59;5017378;28;20301;-75
2022/08/17 06:01:00;;;;;;;6.82;6.22;;;;;;;22.88;56.70;96655.91;5006165;28;20159;-76
2022/08/17 06:03:34;;;;;;;6.53;5.90;;;;;;;22.81;56.83;96659.13;5024706;28;20255;-75
2022/08/17 06:06:19;;;;;;;6.47;5.95;;;;;;;22.92;57.17;96657.50;5006082;28;20674;-75
2022/08/17 06:08:52;;;;;;;6.72;6.22;;;;;;;22.81;56.86;96659.13;5024458;28;20667;-75
2022/08/17 06:11:18;;;;;;;6.80;6.20;;;;;;;22.91;57.40;96663.94;5006253;28;20239;-75
2022/08/17 06:13:46;;;;;;;6.85;6.13;;;;;;;22.80;57.54;96662.88;5025565;28;20640;-75
2022/08/17 06:16:19;;;;;;;6.70;6.20;;;;;;;22.85;57.96;96656.56;5027255;27;20348;-75
2022/08/17 06:18:50;;;;;;;7.07;5.95;;;;;;;22.74;57.87;96648.28;5016190;27;20192;-75
2022/08/17 06:21:18;;;;;;;7.03;6.32;;;;;;;22.83;57.86;96650.81;5035959;27;20154;-75
2022/08/17 06:23:54;;;;;;;7.00;5.65;;;;;;;22.65;58.13;96645.75;5029607;27;20365;-75
2022/08/17 06:26:22;;;;;;;6.57;6.07;;;;;;;22.79;57.69;96651.50;5006688;28;20189;-75
2022/08/17 06:28:52;;;;;;;6.35;5.75;;;;;;;22.84;57.45;96657.66;5031937;27;20174;-75
2022/08/17 06:31:28;;;;;;;6.57;6.03;;;;;;;22.91;56.56;96650.69;4992914;28;20401;-75
2022/08/17 06:33:55;;;;;;;6.40;5.90;;;;;;;22.83;56.99;96648.94;4993229;28;20398;-75
2022/08/17 06:36:49;;;;;;;7.40;6.70;;;;;;;22.74;57.29;96642.97;5002952;27;20295;-76
2022/08/17 06:39:32;;;;;;;6.72;6.03;;;;;;;22.71;57.78;96660.34;5024111;27;20351;-75
2022/08/17 06:42:09;;;;;;;6.47;5.97;;;;;;;22.78;58.01;96667.75;5048063;27;20707;-75
2022/08/17 06:45:13;;;;;;;6.28;5.68;;;;;;;22.78;57.59;96665.09;5040377;27;20214;-75
2022/08/17 06:47:57;;;;;;;6.65;6.15;;;;;;;22.88;57.74;96677.91;4926557;27;20215;-75
2022/08/17 06:50:39;;;;;;;6.57;5.72;;;;;;;22.95;57.73;96683.41;5024311;28;20282;-75
2022/08/17 06:53:04;;;;;;;6.18;5.68;;;;;;;23.06;56.96;96685.59;4992608;28;20174;-75
2022/08/17 06:55:53;;;;;;;7.65;6.13;;;;;;;22.96;56.80;96687.59;5014573;27;20192;-75
2022/08/17 06:58:21;;;;;;;6.55;5.95;;;;;;;23.22;55.31;96688.31;5003724;27;20606;-75
2022/08/17 07:00:50;;;;;;;5.93;5.38;;;;;;;23.25;55.08;96683.09;5009606;27;20212;-75
2022/08/17 07:03:32;;;;;;;6.93;5.95;;;;;;;23.08;55.67;96678.06;5044441;27;20300;-75
2022/08/17 07:06:02;;;;;;;6.43;5.18;;;;;;;23.29;54.25;96673.34;5025695;27;20280;-75
2022/08/17 07:08:33;;;;;;;5.43;5.00;;;;;;;23.36;54.41;96665.56;5042559;27;20195;-75
2022/08/17 07:11:06;;;;;;;5.78;5.28;;;;;;;23.45;54.17;96664.63;5045971;27;20300;-75
2022/08/17 07:13:43;;;;;;;6.50;5.25;;;;;;;23.65;52.65;96673.50;5010003;27;20216;-75
2022/08/17 07:16:24;;;;;;;7.45;4.65;;;;;;;23.84;52.34;96670.19;5028215;27;20254;-75
2022/08/17 07:18:51;;;;;;;4.78;4.38;;;;;;;24.04;51.11;96669.16;5028125;27;20169;-75
2022/08/17 07:21:36;;;;;;;5.10;4.70;;;;;;;24.06;51.70;96671.44;5011570;27;20680;-75
2022/08/17 07:24:36;;;;;;;5.40;4.18;;;;;;;24.08;52.55;96664.66;5011205;27;20632;-75
2022/08/17 07:27:09;;;;;;;4.88;4.47;;;;;;;24.12;51.65;96662.84;5046572;27;20212;-75
2022/08/17 07:30:04;;;;;;;4.47;4.07;;;;;;;24.20;51.19;96668.34;5046563;27;20200;-75
2022/08/17 07:32:34;;;;;;;4.30;4.00;;;;;;;24.28;50.59;96662.06;5046649;27;20640;-75
2022/08/17 07:35:38;;;;;;;4.72;4.40;;;;;;;24.35;50.98;96669.44;5046353;27;20188;-76
2022/08/17 07:38:19;;;;;;;5.18;4.68;;;;;;;24.29;51.16;96669.69;5028399;27;20295;-75
2022/08/17 07:41:03;;;;;;;4.85;4.45;;;;;;;24.31;51.56;96674.66;5027666;27;20198;-75
2022/08/17 07:43:38;;;;;;;5.30;4.80;;;;;;;24.24;52.17;96669.97;5046460;27;20307;-75
2022/08/17 07:49:06;;;;;;;5.30;4.90;;;;;;;24.42;51.36;96675.69;5010207;28;20178;-75
2022/08/17 07:51:35;;;;;;;5.53;5.07;;;;;;;24.40;51.25;96677.94;5040818;27;20233;-76
2022/08/17 07:54:22;;;;;;;5.63;4.82;;;;;;;24.34;51.65;96689.94;5027642;27;20594;-75
2022/08/17 07:57:07;;;;;;;5.60;5.10;;;;;;;24.37;51.19;96686.59;5045107;27;20180;-75
2022/08/17 07:59:34;;;;;;;5.57;5.07;;;;;;;24.36;52.39;96661.09;5027730;27;20189;-75
2022/08/17 08:02:21;;;;;;;5.18;4.70;;;;;;;24.32;51.46;96657.59;5027835;27;20364;-75
2022/08/17 08:05:04;;;;;;;5.57;5.07;;;;;;;24.32;51.58;96673.56;5027972;27;20267;-75
2022/08/17 08:07:41;;;;;;;5.07;4.68;;;;;;;24.49;50.58;96699.03;5045837;27;20641;-75
2022/08/17 08:10:34;;;;;;;5.53;4.85;;;;;;;24.59;50.78;96709.16;4994408;27;20204;-75
2022/08/17 08:13:10;;;;;;;5.15;4.75;;;;;;;24.64;50.70;96722.19;5028171;27;20278;-75
2022/08/17 08:15:47;;;;;;;5.32;4.93;;;;;;;24.59;51.15;96719.03;5045620;27;20325;-75
2022/08/17 08:18:23;;;;;;;5.93;5.20;;;;;;;24.62;51.36;96718.34;5028635;27;20165;-75
2022/08/17 08:21:17;;;;;;;5.80;5.30;;;;;;;24.82;50.76;96727.91;5027759;27;20203;-75
2022/08/17 08:23:59;;;;;;;6.00;5.30;;;;;;;24.74;50.86;96739.50;5024848;27;20221;-75
2022/08/17 08:26:33;;;;;;;5.55;5.07;;;;;;;24.90;50.37;96741.34;5010554;27;20331;-75
2022/08/17 08:29:28;;;;;;;5.53;5.13;;;;;;;24.66;50.86;96737.84;5011495;27;20166;-75
2022/08/17 08:32:08;;;;;;;4.97;4.57;;;;;;;24.66;50.73;96743.91;5045935;27;20174;-75
2022/08/17 08:34:55;;;;;;;5.18;4.70;;;;;;;24.72;50.76;96741.00;5046066;27;20199;-75
2022/08/17 08:37:23;;;;;;;4.72;4.32;;;;;;;24.66;51.00;96751.16;5026323;27;20274;-75
2022/08/17 08:39:58;;;;;;;6.60;4.65;;;;;;;24.69;50.55;96747.75;5045825;27;20293;-75
2022/08/17 08:42:32;;;;;;;5.50;5.00;;;;;;;24.62;50.62;96748.38;5027633;27;20724;-75
2022/08/17 08:45:01;;;;;;;5.63;5.07;;;;;;;24.85;50.20;96758.41;5035140;27;20634;-76
2022/08/17 08:47:30;;;;;;;5.35;4.85;;;;;;;24.95;50.05;96762.38;5006564;28;20608;-75
2022/08/17 08:50:14;;;;;;;5.18;4.72;;;;;;;24.97;50.37;96778.81;5025110;28;20390;-75
2022/08/17 08:52:42;;;;;;;4.70;4.35;;;;;;;24.97;50.16;96776.91;5025515;28;20623;-75
2022/08/17 08:55:18;;;;;;;5.07;4.60;;;;;;;24.97;49.73;96770.81;5025320;28;20284;-75
2022/08/17 08:58:12;;;;;;;4.85;4.45;;;;;;;24.92;50.23;96768.44;5006568;28;20201;-75
2022/08/17 09:00:45;;;;;;;5.68;4.03;;;;;;;25.11;49.36;96755.13;4989965;28;20205;-75
2022/08/17 09:03:36;;;;;;;5.07;4.57;;;;;;;25.11;50.12;96755.13;5007166;28;20620;-75
2022/08/17 09:06:02;;;;;;;5.82;4.60;;;;;;;25.31;49.33;96765.81;5006433;28;20272;-75
2022/08/17 09:09:07;;;;;;;4.82;4.43;;;;;;;25.19;48.90;96766.69;5025265;28;20751;-75
2022/08/17 09:11:53;;;;;;;4.80;4.40;;;;;;;25.14;49.22;96765.09;4989978;28;20182;-75
2022/08/17 09:14:34;;;;;;;4.65;4.07;;;;;;;25.15;49.15;96766.63;5006913;28;20269;-75
2022/08/17 09:17:05;;;;;;;4.93;4.40;;;;;;;25.35;48.79;96764.00;4989603;28;20643;-75
2022/08/17 09:20:00;;;;;;;4.95;4.47;;;;;;;25.09;49.20;96762.69;4973223;28;20634;-75
2022/08/17 09:22:42;;;;;;;4.35;4.05;;;;;;;25.45;48.94;96776.78;4997906;28;20556;-75
2022/08/17 09:25:12;;;;;;;4.28;3.97;;;;;;;25.63;48.56;96769.09;4989385;28;20279;-75
2022/08/17 09:28:00;;;;;;;4.47;4.05;;;;;;;25.91;47.84;96774.19;4989073;28;20275;-75
2022/08/17 09:30:35;;;;;;;4.68;4.28;;;;;;;26.16;47.63;96779.19;4996517;28;20255;-75
2022/08/17 09:33:06;;;;;;;5.18;4.22;;;;;;;26.19;47.50;96777.72;5007537;28;20271;-75
2022/08/17 09:35:36;;;;;;;4.28;3.92;;;;;;;26.08;46.97;96766.84;5024369;28;20599;-75
2022/08/17 09:38:06;;;;;;;4.30;4.00;;;;;;;26.09;47.29;96755.81;4989821;28;20298;-75
2022/08/17 09:40:45;;;;;;;4.22;3.92;;;;;;;26.10;47.12;96760.03;5006273;28;20258;-75
2022/08/17 09:43:33;;;;;;;4.80;4.40;;;;;;;26.07;46.94;96763.41;5006695;28;20591;-75
2022/08/17 09:46:08;;;;;;;4.78;4.35;;;;;;;26.06;47.23;96748.53;5004589;28;20170;-75
2022/08/17 09:49:00;;;;;;;4.22;3.92;;;;;;;26.18;46.91;96742.25;4992050;28;20196;-75
2022/08/17 09:51:31;;;;;;;4.47;4.18;;;;;;;26.40;46.66;96762.03;5010267;28;20692;-75
2022/08/17 09:53:57;;;;;;;4.30;4.00;;;;;;;26.73;46.38;96763.28;4993606;28;20334;-75
2022/08/17 09:56:39;;;;;;;4.55;4.25;;;;;;;26.64;46.46;96760.88;5009689;28;20264;-75
2022/08/17 09:59:04;;;;;;;4.78;4.45;;;;;;;27.17;45.14;96767.31;5009929;28;20583;-75
2022/08/17 10:02:24;;;;;;;6.57;4.68;;;;;;;27.76;44.67;96779.09;5028659;28;20189;-75
2022/08/17 10:04:57;;;;;;;5.15;4.75;;;;;;;28.36;42.60;96788.03;4925768;28;20280;-75
2022/08/17 10:07:29;;;;;;;5.40;4.50;;;;;;;28.85;41.52;96786.88;5023428;28;20154;-75
2022/08/17 10:10:12;;;;;;;4.38;3.97;;;;;;;29.21;40.75;96776.34;4976371;28;20276;-75
2022/08/17 10:12:56;;;;;;;4.88;4.43;;;;;;;29.31;40.36;96778.31;5028406;28;20205;-75
2022/08/17 10:15:45;;;;;;;4.30;4.00;;;;;;;29.90;39.69;96769.28;4976051;28;20174;-75
2022/08/17 10:18:43;;;;;;;4.82;4.53;;;;;;;30.16;38.44;96772.75;4993419;28;20314;-76
2022/08/17 10:26:50;;;;;;;4.28;3.97;;;;;;;30.41;38.12;96778.91;5008931;28;20197;-75
2022/08/17 10:29:21;;;;;;;4.65;4.25;;;;;;;30.61;37.88;96778.53;5009399;28;20263;-75
2022/08/17 10:31:54;;;;;;;4.38;4.07;;;;;;;30.96;37.37;96772.31;5009386;28;20209;-75
2022/08/17 10:34:42;;;;;;;4.13;3.72;;;;;;;30.84;36.43;96777.34;4993101;28;20201;-75
2022/08/17 10:37:27;;;;;;;4.22;3.83;;;;;;;30.89;36.72;96779.63;5008868;28;20293;-76
2022/08/17 10:40:21;;;;;;;4.03;3.78;;;;;;;30.77;36.76;96788.88;5009224;28;20279;-75
2022/08/17 10:43:01;;;;;;;4.18;3.80;;;;;;;30.40;37.67;96788.16;5009291;28;20181;-75
2022/08/17 10:45:43;;;;;;;4.35;3.97;;;;;;;30.32;38.81;96783.13;4991934;28;20245;-75
2022/08/17 10:48:11;;;;;;;4.30;4.00;;;;;;;30.47;37.82;96791.97;4992210;28;20276;-75
2022/08/17 10:50:56;;;;;;;4.53;4.13;;;;;;;30.74;37.44;96803.06;5027555;28;20223;-75
2022/08/17 10:53:31;;;;;;;4.18;3.78;;;;;;;30.86;37.35;96791.16;5027595;28;20352;-75
2022/08/17 10:56:11;;;;;;;4.38;4.00;;;;;;;31.02;36.84;96794.22;5026996;28;20292;-75
2022/08/17 10:58:44;;;;;;;4.38;4.07;;;;;;;30.81;37.29;96790.41;5007659;28;20201;-75
2022/08/17 11:01:11;;;;;;;4.38;4.07;;;;;;;30.91;36.90;96799.56;5008571;28;20608;-75
2022/08/17 11:03:47;;;;;;;4.82;4.45;;;;;;;30.43;37.82;96794.66;5008944;28;20092;-76
2022/08/17 11:06:17;;;;;;;4.10;3.80;;;;;;;30.44;38.43;96782.78;4975241;28;20194;-75
2022/08/17 11:09:05;;;;;;;4.65;4.05;;;;;;;30.42;37.83;96793.91;4992176;28;20205;-75
2022/08/17 11:11:55;;;;;;;3.97;3.67;;;;;;;30.41;38.04;96788.91;5008585;28;20714;-75
2022/08/17 11:14:59;;;;;;;5.07;4.68;;;;;;;30.51;38.01;96795.44;5027169;28;20358;-75
2022/08/17 11:17:40;;;;;;;3.78;3.47;;;;;;;30.74;38.34;96797.69;5008221;28;20167;-76
2022/08/17 11:20:30;;;;;;;4.70;4.30;;;;;;;30.93;38.38;96788.44;4975703;28;20290;-75
2022/08/17 11:23:18;;;;;;;5.20;4.55;;;;;;;30.61;38.42;96789.28;5008145;28;20173;-75
2022/08/17 11:25:54;;;;;;;4.38;4.07;;;;;;;31.12;38.18;96782.66;5026578;28;20683;-75
2022/08/17 11:28:33;;;;;;;4.50;4.20;;;;;;;31.74;37.09;96780.47;4991641;28;20622;-75
2022/08/17 11:31:02;;;;;;;4.15;3.85;;;;;;;32.42;35.98;96776.53;5009317;28;20611;-75
2022/08/17 11:33:28;;;;;;;4.72;4.32;;;;;;;32.29;35.42;96774.31;5014410;27;20524;-75
2022/08/17 11:36:02;;;;;;;4.63;4.32;;;;;;;31.97;36.39;96779.94;5007029;28;20287;-75
2022/08/17 11:39:05;;;;;;;4.78;4.35;;;;;;;31.82;35.78;96783.88;4991499;27;20192;-76
2022/08/17 11:41:51;;;;;;;4.38;4.07;;;;;;;31.45;36.65;96777.16;5027800;27;20237;-75
2022/08/17 11:44:48;;;;;;;4.30;4.00;;;;;;;31.67;36.16;96775.13;4989581;28;20174;-76
2022/08/17 11:53:36;;;;;;;4.95;4.55;;;;;;;31.42;37.38;96777.94;4959614;28;20202;-75
2022/08/17 11:56:08;;;;;;;4.35;4.05;;;;;;;31.56;36.33;96777.88;4990273;28;20297;-76
2022/08/17 11:58:40;;;;;;;4.90;4.50;;;;;;;31.58;36.43;96778.25;4990355;28;20174;-76
2022/08/17 12:01:30;;;;;;;4.45;4.15;;;;;;;31.76;36.33;96780.09;5025628;28;20275;-75
2022/08/17 12:04:28;;;;;;;4.60;4.30;;;;;;;31.88;36.17;96766.16;4989822;28;20128;-75
2022/08/17 12:07:10;;;;;;;4.43;4.10;;;;;;;32.13;35.53;96767.91;5001027;28;20710;-76
2022/08/17 12:09:39;;;;;;;4.82;4.53;;;;;;;32.39;35.27;96771.94;4973746;28;20185;-75
2022/08/17 12:12:20;;;;;;;5.22;4.82;;;;;;;32.44;34.71;96764.19;4990621;28;20184;-75
2022/08/17 12:14:48;;;;;;;4.90;4.60;;;;;;;32.59;34.61;96764.81;4990390;28;20647;-76
2022/08/17 12:17:21;;;;;;;4.90;4.60;;;;;;;33.09;34.16;96762.78;4990198;28;20331;-75
2022/08/17 12:19:46;;;;;;;4.80;4.40;;;;;;;33.02;34.47;96759.00;5006722;28;20213;-76
2022/08/17 12:22:15;;;;;;;4.70;4.30;;;;;;;32.80;34.00;96771.19;5024381;27;20618;-75
2022/08/17 12:24:46;;;;;;;4.63;4.32;;;;;;;32.63;34.27;96765.59;5023388;27;20812;-75
2022/08/17 12:27:19;;;;;;;5.25;4.85;;;;;;;32.00;35.80;96767.63;5043469;27;20203;-75
2022/08/17 12:29:45;;;;;;;5.15;4.75;;;;;;;31.87;36.07;96765.38;5009475;27;20195;-76
2022/08/17 12:32:18;;;;;;;5.35;4.95;;;;;;;31.76;36.57;96769.31;5026312;27;20252;-76